sensor_id;sensor_type;location;lat;lon;timestamp;temperature;humidity
22008;DHT22;11168;56.976;24.168;2023-06-19T00:01:41;19.00;99.90
22008;DHT22;11168;56.976;24.168;2023-06-19T00:04:10;19.00;99.90
22008;DHT22;11168;56.976;24.168;2023-06-19T00:06:37;19.00;99.90
22008;DHT22;11168;56.976;24.168;2023-06-19T00:09:06;18.90;99.90
22008;DHT22;11168;56.976;24.168;2023-06-19T00:11:33;18.90;99.90
22008;DHT22;11168;56.976;24.168;2023-06-19T00:14:00;18.90;99.90
22008;DHT22;11168;56.976;24.168;2023-06-19T00:16:27;18.90;99.90
22008;DHT22;11168;56.976;24.168;2023-06-19T00:18:54;18.90;99.90
22008;DHT22;11168;56.976;24.168;2023-06-19T00:21:25;18.90;99.90
22008;DHT22;11168;56.976;24.168;2023-06-19T00:23:52;18.90;99.90
22008;DHT22;11168;56.976;24.168;2023-06-19T00:26:20;19.00;99.90
22008;DHT22;11168;56.976;24.168;2023-06-19T00:28:50;19.00;99.90
22008;DHT22;11168;56.976;24.168;2023-06-19T00:31:18;19.00;99.90
22008;DHT22;11168;56.976;24.168;2023-06-19T00:33:45;19.00;99.90
22008;DHT22;11168;56.976;24.168;2023-06-19T00:36:16;19.00;99.90
22008;DHT22;11168;56.976;24.168;2023-06-19T00:38:47;19.00;99.90
22008;DHT22;11168;56.976;24.168;2023-06-19T00:41:18;19.10;99.90
22008;DHT22;11168;56.976;24.168;2023-06-19T00:43:45;19.00;99.90
22008;DHT22;11168;56.976;24.168;2023-06-19T00:46:12;19.00;99.90
22008;DHT22;11168;56.976;24.168;2023-06-19T00:48:39;18.90;99.90
22008;DHT22;11168;56.976;24.168;2023-06-19T00:51:07;18.90;99.90
22008;DHT22;11168;56.976;24.168;2023-06-19T00:53:34;18.90;99.90
22008;DHT22;11168;56.976;24.168;2023-06-19T00:56:02;18.90;99.90
22008;DHT22;11168;56.976;24.168;2023-06-19T00:58:30;18.90;99.90
22008;DHT22;11168;56.976;24.168;2023-06-19T01:00:58;18.80;99.90
22008;DHT22;11168;56.976;24.168;2023-06-19T01:03:34;18.80;99.90
22008;DHT22;11168;56.976;24.168;2023-06-19T01:06:05;18.80;99.90
22008;DHT22;11168;56.976;24.168;2023-06-19T01:11:13;18.80;99.90
22008;DHT22;11168;56.976;24.168;2023-06-19T01:13:59;18.80;99.90
22008;DHT22;11168;56.976;24.168;2023-06-19T01:16:28;18.80;99.90
22008;DHT22;11168;56.976;24.168;2023-06-19T01:18:56;18.80;99.90
22008;DHT22;11168;56.976;24.168;2023-06-19T01:21:24;18.80;99.90
22008;DHT22;11168;56.976;24.168;2023-06-19T01:23:51;18.80;99.90
22008;DHT22;11168;56.976;24.168;2023-06-19T01:26:21;18.80;99.90
22008;DHT22;11168;56.976;24.168;2023-06-19T01:28:48;18.80;99.90
22008;DHT22;11168;56.976;24.168;2023-06-19T01:31:25;18.80;99.90
22008;DHT22;11168;56.976;24.168;2023-06-19T01:33:54;18.80;99.90
22008;DHT22;11168;56.976;24.168;2023-06-19T01:36:23;18.80;99.90
22008;DHT22;11168;56.976;24.168;2023-06-19T01:38:51;18.80;99.90
22008;DHT22;11168;56.976;24.168;2023-06-19T01:41:19;18.70;99.90
22008;DHT22;11168;56.976;24.168;2023-06-19T01:43:49;18.70;99.90
22008;DHT22;11168;56.976;24.168;2023-06-19T01:46:16;18.70;99.90
22008;DHT22;11168;56.976;24.168;2023-06-19T01:48:43;18.70;99.90
22008;DHT22;11168;56.976;24.168;2023-06-19T01:51:10;18.70;99.90
22008;DHT22;11168;56.976;24.168;2023-06-19T01:53:38;18.70;99.90
22008;DHT22;11168;56.976;24.168;2023-06-19T01:56:05;18.70;99.90
22008;DHT22;11168;56.976;24.168;2023-06-19T01:58:32;18.70;99.90
22008;DHT22;11168;56.976;24.168;2023-06-19T02:00:59;18.70;99.90
22008;DHT22;11168;56.976;24.168;2023-06-19T02:03:25;18.70;99.90
22008;DHT22;11168;56.976;24.168;2023-06-19T02:05:53;18.70;99.90
22008;DHT22;11168;56.976;24.168;2023-06-19T02:08:20;18.70;99.90
22008;DHT22;11168;56.976;24.168;2023-06-19T02:10:47;18.70;99.90
22008;DHT22;11168;56.976;24.168;2023-06-19T02:13:14;18.60;99.90
22008;DHT22;11168;56.976;24.168;2023-06-19T02:15:40;18.70;99.90
22008;DHT22;11168;56.976;24.168;2023-06-19T02:18:08;18.60;99.90
22008;DHT22;11168;56.976;24.168;2023-06-19T02:20:35;18.60;99.90
22008;DHT22;11168;56.976;24.168;2023-06-19T02:23:02;18.60;99.90
22008;DHT22;11168;56.976;24.168;2023-06-19T02:25:29;18.60;99.90
22008;DHT22;11168;56.976;24.168;2023-06-19T02:27:56;18.60;99.90
22008;DHT22;11168;56.976;24.168;2023-06-19T02:30:23;18.60;99.90
22008;DHT22;11168;56.976;24.168;2023-06-19T02:32:50;18.60;99.90
22008;DHT22;11168;56.976;24.168;2023-06-19T02:35:17;18.60;99.90
22008;DHT22;11168;56.976;24.168;2023-06-19T02:37:45;18.60;99.90
22008;DHT22;11168;56.976;24.168;2023-06-19T02:40:13;18.60;99.90
22008;DHT22;11168;56.976;24.168;2023-06-19T02:42:41;18.60;99.90
22008;DHT22;11168;56.976;24.168;2023-06-19T02:45:08;18.60;99.90
22008;DHT22;11168;56.976;24.168;2023-06-19T02:47:35;18.60;99.90
22008;DHT22;11168;56.976;24.168;2023-06-19T02:50:03;18.60;99.90
22008;DHT22;11168;56.976;24.168;2023-06-19T02:52:30;18.60;99.90
22008;DHT22;11168;56.976;24.168;2023-06-19T02:54:57;18.70;99.90
22008;DHT22;11168;56.976;24.168;2023-06-19T02:57:25;18.70;99.90
22008;DHT22;11168;56.976;24.168;2023-06-19T02:59:52;18.70;99.90
22008;DHT22;11168;56.976;24.168;2023-06-19T03:02:19;18.70;99.90
22008;DHT22;11168;56.976;24.168;2023-06-19T03:04:47;18.70;99.90
22008;DHT22;11168;56.976;24.168;2023-06-19T03:07:14;18.70;99.90
22008;DHT22;11168;56.976;24.168;2023-06-19T03:09:41;18.70;99.90
22008;DHT22;11168;56.976;24.168;2023-06-19T03:12:09;18.70;99.90
22008;DHT22;11168;56.976;24.168;2023-06-19T03:14:36;18.70;99.90
22008;DHT22;11168;56.976;24.168;2023-06-19T03:17:03;18.70;99.90
22008;DHT22;11168;56.976;24.168;2023-06-19T03:19:30;18.80;99.90
22008;DHT22;11168;56.976;24.168;2023-06-19T03:21:57;18.80;99.90
22008;DHT22;11168;56.976;24.168;2023-06-19T03:24:24;18.80;99.90
22008;DHT22;11168;56.976;24.168;2023-06-19T03:26:53;18.90;99.90
22008;DHT22;11168;56.976;24.168;2023-06-19T03:29:20;18.90;99.90
22008;DHT22;11168;56.976;24.168;2023-06-19T03:31:47;18.90;99.90
22008;DHT22;11168;56.976;24.168;2023-06-19T03:34:15;19.00;99.90
22008;DHT22;11168;56.976;24.168;2023-06-19T03:36:42;19.00;99.90
22008;DHT22;11168;56.976;24.168;2023-06-19T03:39:09;19.10;99.90
22008;DHT22;11168;56.976;24.168;2023-06-19T03:41:36;19.20;99.90
22008;DHT22;11168;56.976;24.168;2023-06-19T03:44:03;19.20;99.90
22008;DHT22;11168;56.976;24.168;2023-06-19T03:46:30;19.40;99.90
22008;DHT22;11168;56.976;24.168;2023-06-19T03:48:57;19.40;99.90
22008;DHT22;11168;56.976;24.168;2023-06-19T03:51:24;19.40;99.90
22008;DHT22;11168;56.976;24.168;2023-06-19T03:53:51;19.50;99.90
22008;DHT22;11168;56.976;24.168;2023-06-19T03:56:18;19.60;99.90
22008;DHT22;11168;56.976;24.168;2023-06-19T03:58:45;19.60;99.90
22008;DHT22;11168;56.976;24.168;2023-06-19T04:01:12;19.70;99.90
22008;DHT22;11168;56.976;24.168;2023-06-19T04:03:39;19.80;99.90
22008;DHT22;11168;56.976;24.168;2023-06-19T04:06:07;19.80;99.90
22008;DHT22;11168;56.976;24.168;2023-06-19T04:08:34;19.90;99.90
22008;DHT22;11168;56.976;24.168;2023-06-19T04:11:01;19.90;99.90
22008;DHT22;11168;56.976;24.168;2023-06-19T04:13:28;19.90;99.90
22008;DHT22;11168;56.976;24.168;2023-06-19T04:15:56;20.00;99.90
22008;DHT22;11168;56.976;24.168;2023-06-19T04:18:23;20.10;99.90
22008;DHT22;11168;56.976;24.168;2023-06-19T04:20:50;20.10;99.90
22008;DHT22;11168;56.976;24.168;2023-06-19T04:23:17;20.20;99.90
22008;DHT22;11168;56.976;24.168;2023-06-19T04:25:44;20.20;99.90
22008;DHT22;11168;56.976;24.168;2023-06-19T04:28:11;20.30;99.90
22008;DHT22;11168;56.976;24.168;2023-06-19T04:30:37;20.20;99.90
22008;DHT22;11168;56.976;24.168;2023-06-19T04:33:06;20.30;99.90
22008;DHT22;11168;56.976;24.168;2023-06-19T04:35:35;20.40;99.90
22008;DHT22;11168;56.976;24.168;2023-06-19T04:38:07;20.40;99.90
22008;DHT22;11168;56.976;24.168;2023-06-19T04:40:34;20.40;99.90
22008;DHT22;11168;56.976;24.168;2023-06-19T04:43:02;20.40;99.90
22008;DHT22;11168;56.976;24.168;2023-06-19T04:45:29;20.40;99.90
22008;DHT22;11168;56.976;24.168;2023-06-19T04:47:56;20.40;99.90
22008;DHT22;11168;56.976;24.168;2023-06-19T04:50:23;20.40;99.90
22008;DHT22;11168;56.976;24.168;2023-06-19T04:52:50;20.40;99.90
22008;DHT22;11168;56.976;24.168;2023-06-19T04:55:19;20.40;99.90
22008;DHT22;11168;56.976;24.168;2023-06-19T04:57:46;20.50;99.90
22008;DHT22;11168;56.976;24.168;2023-06-19T05:00:13;20.40;99.90
22008;DHT22;11168;56.976;24.168;2023-06-19T05:02:42;20.60;99.90
22008;DHT22;11168;56.976;24.168;2023-06-19T05:05:10;20.60;99.90
22008;DHT22;11168;56.976;24.168;2023-06-19T05:07:38;20.60;99.90
22008;DHT22;11168;56.976;24.168;2023-06-19T05:10:05;20.70;99.90
22008;DHT22;11168;56.976;24.168;2023-06-19T05:12:35;20.70;99.90
22008;DHT22;11168;56.976;24.168;2023-06-19T05:15:02;20.70;99.90
22008;DHT22;11168;56.976;24.168;2023-06-19T05:17:29;20.70;99.90
22008;DHT22;11168;56.976;24.168;2023-06-19T05:19:56;20.80;99.90
22008;DHT22;11168;56.976;24.168;2023-06-19T05:22:23;21.00;99.90
22008;DHT22;11168;56.976;24.168;2023-06-19T05:24:50;21.10;99.90
22008;DHT22;11168;56.976;24.168;2023-06-19T05:27:18;21.20;99.90
22008;DHT22;11168;56.976;24.168;2023-06-19T05:29:45;21.20;99.90
22008;DHT22;11168;56.976;24.168;2023-06-19T05:32:12;21.30;99.90
22008;DHT22;11168;56.976;24.168;2023-06-19T05:34:39;21.30;99.90
22008;DHT22;11168;56.976;24.168;2023-06-19T05:37:06;21.40;99.90
22008;DHT22;11168;56.976;24.168;2023-06-19T05:39:33;21.50;99.90
22008;DHT22;11168;56.976;24.168;2023-06-19T05:42:00;21.60;99.90
22008;DHT22;11168;56.976;24.168;2023-06-19T05:44:27;21.70;99.90
22008;DHT22;11168;56.976;24.168;2023-06-19T05:46:54;21.70;99.90
22008;DHT22;11168;56.976;24.168;2023-06-19T05:49:21;21.70;99.90
22008;DHT22;11168;56.976;24.168;2023-06-19T05:51:48;21.80;99.90
22008;DHT22;11168;56.976;24.168;2023-06-19T05:54:15;21.70;99.90
22008;DHT22;11168;56.976;24.168;2023-06-19T05:56:44;21.70;99.90
22008;DHT22;11168;56.976;24.168;2023-06-19T05:59:11;21.70;99.90
22008;DHT22;11168;56.976;24.168;2023-06-19T06:01:41;21.60;99.90
22008;DHT22;11168;56.976;24.168;2023-06-19T06:04:08;21.70;99.90
22008;DHT22;11168;56.976;24.168;2023-06-19T06:06:35;21.80;99.90
22008;DHT22;11168;56.976;24.168;2023-06-19T06:09:02;21.80;99.90
22008;DHT22;11168;56.976;24.168;2023-06-19T06:11:29;21.60;99.90
22008;DHT22;11168;56.976;24.168;2023-06-19T06:13:56;21.70;99.90
22008;DHT22;11168;56.976;24.168;2023-06-19T06:16:23;21.70;99.90
22008;DHT22;11168;56.976;24.168;2023-06-19T06:18:50;21.70;99.90
22008;DHT22;11168;56.976;24.168;2023-06-19T06:21:17;21.80;99.90
22008;DHT22;11168;56.976;24.168;2023-06-19T06:23:44;21.80;99.90
22008;DHT22;11168;56.976;24.168;2023-06-19T06:26:11;21.80;99.90
22008;DHT22;11168;56.976;24.168;2023-06-19T06:28:39;22.00;99.90
22008;DHT22;11168;56.976;24.168;2023-06-19T06:31:06;22.00;99.90
22008;DHT22;11168;56.976;24.168;2023-06-19T06:33:33;22.00;99.90
22008;DHT22;11168;56.976;24.168;2023-06-19T06:36:00;22.00;99.90
22008;DHT22;11168;56.976;24.168;2023-06-19T06:38:28;22.10;99.90
22008;DHT22;11168;56.976;24.168;2023-06-19T06:40:54;22.20;99.90
22008;DHT22;11168;56.976;24.168;2023-06-19T06:43:22;22.30;99.90
22008;DHT22;11168;56.976;24.168;2023-06-19T06:45:49;22.30;99.90
22008;DHT22;11168;56.976;24.168;2023-06-19T06:48:16;22.30;99.90
22008;DHT22;11168;56.976;24.168;2023-06-19T06:50:43;22.40;99.90
22008;DHT22;11168;56.976;24.168;2023-06-19T06:53:10;22.50;99.90
22008;DHT22;11168;56.976;24.168;2023-06-19T06:55:37;22.50;99.90
22008;DHT22;11168;56.976;24.168;2023-06-19T06:58:04;22.50;99.90
22008;DHT22;11168;56.976;24.168;2023-06-19T07:00:32;22.50;99.90
22008;DHT22;11168;56.976;24.168;2023-06-19T07:02:59;22.50;99.90
22008;DHT22;11168;56.976;24.168;2023-06-19T07:05:26;22.50;99.90
22008;DHT22;11168;56.976;24.168;2023-06-19T07:07:55;22.40;99.90
22008;DHT22;11168;56.976;24.168;2023-06-19T07:10:22;22.60;99.90
22008;DHT22;11168;56.976;24.168;2023-06-19T07:12:50;22.60;99.90
22008;DHT22;11168;56.976;24.168;2023-06-19T07:15:18;22.60;99.90
22008;DHT22;11168;56.976;24.168;2023-06-19T07:17:45;22.40;99.90
22008;DHT22;11168;56.976;24.168;2023-06-19T07:20:13;22.40;99.90
22008;DHT22;11168;56.976;24.168;2023-06-19T07:22:40;22.50;99.90
22008;DHT22;11168;56.976;24.168;2023-06-19T07:25:09;22.50;99.90
22008;DHT22;11168;56.976;24.168;2023-06-19T07:27:37;22.60;99.90
22008;DHT22;11168;56.976;24.168;2023-06-19T07:30:05;22.50;99.90
22008;DHT22;11168;56.976;24.168;2023-06-19T07:32:32;22.50;99.90
22008;DHT22;11168;56.976;24.168;2023-06-19T07:34:59;22.60;99.90
22008;DHT22;11168;56.976;24.168;2023-06-19T07:37:26;22.60;99.90
22008;DHT22;11168;56.976;24.168;2023-06-19T07:39:53;22.60;99.90
22008;DHT22;11168;56.976;24.168;2023-06-19T07:42:20;22.50;99.90
22008;DHT22;11168;56.976;24.168;2023-06-19T07:44:47;22.40;99.90
22008;DHT22;11168;56.976;24.168;2023-06-19T07:47:16;22.40;99.90
22008;DHT22;11168;56.976;24.168;2023-06-19T07:49:43;22.40;99.90
22008;DHT22;11168;56.976;24.168;2023-06-19T07:52:10;22.40;99.90
22008;DHT22;11168;56.976;24.168;2023-06-19T07:54:48;22.30;99.90
22008;DHT22;11168;56.976;24.168;2023-06-19T07:57:15;22.30;99.90
22008;DHT22;11168;56.976;24.168;2023-06-19T07:59:42;22.40;99.90
22008;DHT22;11168;56.976;24.168;2023-06-19T08:02:09;22.60;99.90
22008;DHT22;11168;56.976;24.168;2023-06-19T08:04:36;22.70;99.90
22008;DHT22;11168;56.976;24.168;2023-06-19T08:07:03;22.70;99.90
22008;DHT22;11168;56.976;24.168;2023-06-19T08:09:30;23.00;99.90
22008;DHT22;11168;56.976;24.168;2023-06-19T08:11:57;23.20;99.90
22008;DHT22;11168;56.976;24.168;2023-06-19T08:14:24;23.30;99.90
22008;DHT22;11168;56.976;24.168;2023-06-19T08:16:51;23.60;99.90
22008;DHT22;11168;56.976;24.168;2023-06-19T08:19:18;23.80;99.90
22008;DHT22;11168;56.976;24.168;2023-06-19T08:21:45;24.00;99.90
22008;DHT22;11168;56.976;24.168;2023-06-19T08:24:12;24.50;99.90
22008;DHT22;11168;56.976;24.168;2023-06-19T08:26:39;25.20;99.90
22008;DHT22;11168;56.976;24.168;2023-06-19T08:29:06;25.30;99.90
22008;DHT22;11168;56.976;24.168;2023-06-19T08:31:33;26.90;99.90
22008;DHT22;11168;56.976;24.168;2023-06-19T08:34:00;27.50;99.90
22008;DHT22;11168;56.976;24.168;2023-06-19T08:36:31;27.60;99.90
22008;DHT22;11168;56.976;24.168;2023-06-19T08:38:58;27.10;99.90
22008;DHT22;11168;56.976;24.168;2023-06-19T08:41:25;26.50;99.90
22008;DHT22;11168;56.976;24.168;2023-06-19T08:43:52;26.40;99.90
22008;DHT22;11168;56.976;24.168;2023-06-19T08:46:19;26.30;99.90
22008;DHT22;11168;56.976;24.168;2023-06-19T08:48:46;25.90;99.90
22008;DHT22;11168;56.976;24.168;2023-06-19T08:51:13;25.60;99.90
22008;DHT22;11168;56.976;24.168;2023-06-19T08:53:48;25.50;99.90
22008;DHT22;11168;56.976;24.168;2023-06-19T08:56:18;25.50;99.90
22008;DHT22;11168;56.976;24.168;2023-06-19T08:58:45;25.40;99.90
22008;DHT22;11168;56.976;24.168;2023-06-19T09:01:16;25.10;99.90
22008;DHT22;11168;56.976;24.168;2023-06-19T09:03:43;24.90;99.90
22008;DHT22;11168;56.976;24.168;2023-06-19T09:06:16;24.60;99.90
22008;DHT22;11168;56.976;24.168;2023-06-19T09:08:43;24.40;99.90
22008;DHT22;11168;56.976;24.168;2023-06-19T09:11:11;24.50;99.90
22008;DHT22;11168;56.976;24.168;2023-06-19T09:13:38;24.60;99.90
22008;DHT22;11168;56.976;24.168;2023-06-19T09:16:07;24.80;99.90
22008;DHT22;11168;56.976;24.168;2023-06-19T09:18:45;25.20;99.90
22008;DHT22;11168;56.976;24.168;2023-06-19T09:21:20;25.70;99.90
22008;DHT22;11168;56.976;24.168;2023-06-19T09:23:48;26.20;99.90
22008;DHT22;11168;56.976;24.168;2023-06-19T09:26:18;26.20;99.90
22008;DHT22;11168;56.976;24.168;2023-06-19T09:28:46;25.90;99.90
22008;DHT22;11168;56.976;24.168;2023-06-19T09:31:17;25.70;99.90
22008;DHT22;11168;56.976;24.168;2023-06-19T09:33:44;25.80;99.90
22008;DHT22;11168;56.976;24.168;2023-06-19T09:36:11;25.60;99.90
22008;DHT22;11168;56.976;24.168;2023-06-19T09:38:38;25.50;99.90
22008;DHT22;11168;56.976;24.168;2023-06-19T09:41:07;25.30;99.90
22008;DHT22;11168;56.976;24.168;2023-06-19T09:43:39;25.40;99.90
22008;DHT22;11168;56.976;24.168;2023-06-19T09:46:08;25.40;99.90
22008;DHT22;11168;56.976;24.168;2023-06-19T09:48:35;25.30;99.90
22008;DHT22;11168;56.976;24.168;2023-06-19T09:53:38;25.40;99.90
22008;DHT22;11168;56.976;24.168;2023-06-19T09:56:05;25.70;99.90
22008;DHT22;11168;56.976;24.168;2023-06-19T09:58:32;26.00;99.90
22008;DHT22;11168;56.976;24.168;2023-06-19T10:00:59;26.10;99.90
22008;DHT22;11168;56.976;24.168;2023-06-19T10:03:33;26.20;99.90
22008;DHT22;11168;56.976;24.168;2023-06-19T10:06:02;26.70;99.90
22008;DHT22;11168;56.976;24.168;2023-06-19T10:08:31;26.90;99.90
22008;DHT22;11168;56.976;24.168;2023-06-19T10:10:58;27.50;99.90
22008;DHT22;11168;56.976;24.168;2023-06-19T10:13:36;27.90;99.90
22008;DHT22;11168;56.976;24.168;2023-06-19T10:16:06;28.30;99.60
22008;DHT22;11168;56.976;24.168;2023-06-19T10:18:47;28.50;99.10
22008;DHT22;11168;56.976;24.168;2023-06-19T10:21:21;28.20;99.20
22008;DHT22;11168;56.976;24.168;2023-06-19T10:23:56;28.50;99.20
22008;DHT22;11168;56.976;24.168;2023-06-19T10:26:34;28.70;98.50
22008;DHT22;11168;56.976;24.168;2023-06-19T10:29:14;29.20;97.30
22008;DHT22;11168;56.976;24.168;2023-06-19T10:31:41;28.80;97.50
22008;DHT22;11168;56.976;24.168;2023-06-19T10:34:08;28.90;96.00
22008;DHT22;11168;56.976;24.168;2023-06-19T10:36:35;29.00;95.90
22008;DHT22;11168;56.976;24.168;2023-06-19T10:39:02;29.20;96.20
22008;DHT22;11168;56.976;24.168;2023-06-19T10:41:29;29.10;96.20
22008;DHT22;11168;56.976;24.168;2023-06-19T10:43:59;29.20;95.70
22008;DHT22;11168;56.976;24.168;2023-06-19T10:46:34;29.20;95.30
22008;DHT22;11168;56.976;24.168;2023-06-19T10:49:06;29.50;94.80
22008;DHT22;11168;56.976;24.168;2023-06-19T10:51:35;29.60;95.00
22008;DHT22;11168;56.976;24.168;2023-06-19T10:54:08;29.20;94.60
22008;DHT22;11168;56.976;24.168;2023-06-19T10:56:36;29.30;94.10
22008;DHT22;11168;56.976;24.168;2023-06-19T10:59:08;29.30;93.90
22008;DHT22;11168;56.976;24.168;2023-06-19T11:01:44;29.40;93.60
22008;DHT22;11168;56.976;24.168;2023-06-19T11:04:13;29.70;93.50
22008;DHT22;11168;56.976;24.168;2023-06-19T11:06:47;29.30;93.80
22008;DHT22;11168;56.976;24.168;2023-06-19T11:09:14;29.00;93.90
22008;DHT22;11168;56.976;24.168;2023-06-19T11:11:46;29.10;92.80
22008;DHT22;11168;56.976;24.168;2023-06-19T11:14:15;28.80;91.90
22008;DHT22;11168;56.976;24.168;2023-06-19T11:16:46;28.80;92.20
22008;DHT22;11168;56.976;24.168;2023-06-19T11:19:17;28.80;91.70
22008;DHT22;11168;56.976;24.168;2023-06-19T11:21:49;29.10;91.50
22008;DHT22;11168;56.976;24.168;2023-06-19T11:24:16;29.20;91.00
22008;DHT22;11168;56.976;24.168;2023-06-19T11:26:46;29.60;90.60
22008;DHT22;11168;56.976;24.168;2023-06-19T11:31:50;30.00;90.00
22008;DHT22;11168;56.976;24.168;2023-06-19T11:34:17;30.00;90.40
22008;DHT22;11168;56.976;24.168;2023-06-19T11:36:50;29.80;90.10
22008;DHT22;11168;56.976;24.168;2023-06-19T11:39:17;30.00;89.40
22008;DHT22;11168;56.976;24.168;2023-06-19T11:41:44;29.70;88.80
22008;DHT22;11168;56.976;24.168;2023-06-19T11:44:12;29.50;90.20
22008;DHT22;11168;56.976;24.168;2023-06-19T11:46:39;29.00;90.10
22008;DHT22;11168;56.976;24.168;2023-06-19T11:49:16;29.50;90.90
22008;DHT22;11168;56.976;24.168;2023-06-19T11:51:46;29.50;89.20
22008;DHT22;11168;56.976;24.168;2023-06-19T11:54:13;29.50;90.10
22008;DHT22;11168;56.976;24.168;2023-06-19T11:56:44;29.70;90.10
22008;DHT22;11168;56.976;24.168;2023-06-19T11:59:11;29.80;88.20
22008;DHT22;11168;56.976;24.168;2023-06-19T12:01:38;29.60;84.40
22008;DHT22;11168;56.976;24.168;2023-06-19T12:04:08;29.50;87.60
22008;DHT22;11168;56.976;24.168;2023-06-19T12:06:35;29.60;85.40
22008;DHT22;11168;56.976;24.168;2023-06-19T12:09:04;29.80;85.80
22008;DHT22;11168;56.976;24.168;2023-06-19T12:11:33;29.90;85.60
22008;DHT22;11168;56.976;24.168;2023-06-19T12:14:01;29.80;84.70
22008;DHT22;11168;56.976;24.168;2023-06-19T12:16:28;29.50;85.40
22008;DHT22;11168;56.976;24.168;2023-06-19T12:18:55;29.60;85.70
22008;DHT22;11168;56.976;24.168;2023-06-19T12:21:22;29.50;85.60
22008;DHT22;11168;56.976;24.168;2023-06-19T12:24:03;29.50;85.30
22008;DHT22;11168;56.976;24.168;2023-06-19T12:26:31;29.60;85.90
22008;DHT22;11168;56.976;24.168;2023-06-19T12:29:04;29.70;80.80
22008;DHT22;11168;56.976;24.168;2023-06-19T12:31:32;29.80;77.70
22008;DHT22;11168;56.976;24.168;2023-06-19T12:33:59;29.80;77.80
22008;DHT22;11168;56.976;24.168;2023-06-19T12:36:39;30.00;78.50
22008;DHT22;11168;56.976;24.168;2023-06-19T12:39:06;30.30;76.80
22008;DHT22;11168;56.976;24.168;2023-06-19T12:41:41;30.10;75.50
22008;DHT22;11168;56.976;24.168;2023-06-19T12:44:08;29.80;76.20
22008;DHT22;11168;56.976;24.168;2023-06-19T12:46:35;29.80;75.00
22008;DHT22;11168;56.976;24.168;2023-06-19T12:49:02;29.80;75.30
22008;DHT22;11168;56.976;24.168;2023-06-19T12:51:29;29.80;75.40
22008;DHT22;11168;56.976;24.168;2023-06-19T12:53:57;29.70;76.70
22008;DHT22;11168;56.976;24.168;2023-06-19T12:56:24;29.60;79.10
22008;DHT22;11168;56.976;24.168;2023-06-19T12:58:51;29.70;78.30
22008;DHT22;11168;56.976;24.168;2023-06-19T13:01:18;29.90;77.30
22008;DHT22;11168;56.976;24.168;2023-06-19T13:03:46;29.80;77.10
22008;DHT22;11168;56.976;24.168;2023-06-19T13:06:13;29.50;77.00
22008;DHT22;11168;56.976;24.168;2023-06-19T13:08:40;29.40;75.70
22008;DHT22;11168;56.976;24.168;2023-06-19T13:11:07;29.40;76.60
22008;DHT22;11168;56.976;24.168;2023-06-19T13:13:34;29.50;75.50
22008;DHT22;11168;56.976;24.168;2023-06-19T13:16:01;29.40;75.70
22008;DHT22;11168;56.976;24.168;2023-06-19T13:18:31;29.40;75.30
22008;DHT22;11168;56.976;24.168;2023-06-19T13:20:58;29.60;74.40
22008;DHT22;11168;56.976;24.168;2023-06-19T13:23:25;29.70;75.00
22008;DHT22;11168;56.976;24.168;2023-06-19T13:25:52;29.50;73.00
22008;DHT22;11168;56.976;24.168;2023-06-19T13:28:19;29.20;74.20
22008;DHT22;11168;56.976;24.168;2023-06-19T13:30:46;28.90;75.50
22008;DHT22;11168;56.976;24.168;2023-06-19T13:33:13;28.90;75.40
22008;DHT22;11168;56.976;24.168;2023-06-19T13:35:40;28.70;75.70
22008;DHT22;11168;56.976;24.168;2023-06-19T13:38:07;28.40;75.60
22008;DHT22;11168;56.976;24.168;2023-06-19T13:40:34;28.40;76.40
22008;DHT22;11168;56.976;24.168;2023-06-19T13:43:01;28.40;76.80
22008;DHT22;11168;56.976;24.168;2023-06-19T13:45:30;28.50;76.70
22008;DHT22;11168;56.976;24.168;2023-06-19T13:48:01;28.80;75.20
22008;DHT22;11168;56.976;24.168;2023-06-19T13:50:28;28.80;75.30
22008;DHT22;11168;56.976;24.168;2023-06-19T13:52:55;29.00;76.20
22008;DHT22;11168;56.976;24.168;2023-06-19T13:55:22;28.80;74.00
22008;DHT22;11168;56.976;24.168;2023-06-19T13:57:49;28.70;73.70
22008;DHT22;11168;56.976;24.168;2023-06-19T14:00:16;28.60;74.90
22008;DHT22;11168;56.976;24.168;2023-06-19T14:02:44;28.60;75.40
22008;DHT22;11168;56.976;24.168;2023-06-19T14:05:11;28.70;76.10
22008;DHT22;11168;56.976;24.168;2023-06-19T14:07:41;28.50;76.10
22008;DHT22;11168;56.976;24.168;2023-06-19T14:10:11;28.40;76.40
22008;DHT22;11168;56.976;24.168;2023-06-19T14:12:39;28.30;76.20
22008;DHT22;11168;56.976;24.168;2023-06-19T14:15:06;28.30;76.30
22008;DHT22;11168;56.976;24.168;2023-06-19T14:17:35;28.30;76.00
22008;DHT22;11168;56.976;24.168;2023-06-19T14:20:02;28.20;75.40
22008;DHT22;11168;56.976;24.168;2023-06-19T14:22:31;28.30;75.90
22008;DHT22;11168;56.976;24.168;2023-06-19T14:24:58;28.20;76.20
22008;DHT22;11168;56.976;24.168;2023-06-19T14:27:29;28.30;76.60
22008;DHT22;11168;56.976;24.168;2023-06-19T14:29:56;28.20;76.50
22008;DHT22;11168;56.976;24.168;2023-06-19T14:32:23;28.10;76.50
22008;DHT22;11168;56.976;24.168;2023-06-19T14:34:51;28.00;76.10
22008;DHT22;11168;56.976;24.168;2023-06-19T14:37:18;27.90;76.00
22008;DHT22;11168;56.976;24.168;2023-06-19T14:39:45;27.80;76.30
22008;DHT22;11168;56.976;24.168;2023-06-19T14:42:12;27.80;76.70
22008;DHT22;11168;56.976;24.168;2023-06-19T14:44:39;27.70;76.00
22008;DHT22;11168;56.976;24.168;2023-06-19T14:47:06;27.70;76.90
22008;DHT22;11168;56.976;24.168;2023-06-19T14:49:33;27.60;77.00
22008;DHT22;11168;56.976;24.168;2023-06-19T14:52:00;27.60;76.70
22008;DHT22;11168;56.976;24.168;2023-06-19T14:54:28;27.60;76.10
22008;DHT22;11168;56.976;24.168;2023-06-19T14:56:55;27.60;76.10
22008;DHT22;11168;56.976;24.168;2023-06-19T14:59:22;27.60;76.20
22008;DHT22;11168;56.976;24.168;2023-06-19T15:01:49;27.50;75.90
22008;DHT22;11168;56.976;24.168;2023-06-19T15:04:16;27.50;75.20
22008;DHT22;11168;56.976;24.168;2023-06-19T15:06:44;27.40;75.50
22008;DHT22;11168;56.976;24.168;2023-06-19T15:09:11;27.40;76.50
22008;DHT22;11168;56.976;24.168;2023-06-19T15:11:38;27.30;76.40
22008;DHT22;11168;56.976;24.168;2023-06-19T15:14:05;27.30;76.40
22008;DHT22;11168;56.976;24.168;2023-06-19T15:16:32;27.20;77.00
22008;DHT22;11168;56.976;24.168;2023-06-19T15:19:03;27.10;76.90
22008;DHT22;11168;56.976;24.168;2023-06-19T15:21:30;27.00;78.70
22008;DHT22;11168;56.976;24.168;2023-06-19T15:23:57;27.00;78.80
22008;DHT22;11168;56.976;24.168;2023-06-19T15:26:24;26.90;79.20
22008;DHT22;11168;56.976;24.168;2023-06-19T15:28:51;26.90;79.20